• 1385014 10153382300060425 128216538 n
  • 3
  • 6
  • 7
  • 1
  • 10
  • 未命名
  • 121
  • 55
  • 2
  • cargo

Click here and log in to see your monthly flight duties. 請按此登入個人班表區

Welcome aboard

Current Weather

[source: ADDS]
METAR
RCTP 301130Z 05021KT 9999 FEW020 SCT040 27/23 Q1013 NOSIG RMK A2992 =
TAF
TAF RCTP 301100Z 3012/0118 04018KT 8000 FEW012 BKN032 BKN060 TEMPO 3012/3018 05022G32KT 5000 RA FEW008 BKN016 BKN050 TEMPO 3018/3024 SCT006 BKN012 BKN040 =